createdAt,value
2018-11-28T00:00:17.263Z,100353.98
2018-11-28T00:02:45.830Z,100352.45
2018-11-28T00:05:14.371Z,100342.47
2018-11-28T00:07:42.970Z,100352.80
2018-11-28T00:10:13.459Z,100349.05
2018-11-28T00:12:42.461Z,100350.34
2018-11-28T00:15:13.850Z,100345.16
2018-11-28T00:17:42.441Z,100340.44
2018-11-28T00:20:15.382Z,100335.87
2018-11-28T00:22:44.195Z,100338.47
2018-11-28T00:25:13.427Z,100334.20
2018-11-28T00:27:41.997Z,100337.98
2018-11-28T00:30:16.951Z,100330.78
2018-11-28T00:32:45.540Z,100331.21
2018-11-28T00:35:16.889Z,100324.59
2018-11-28T00:37:45.403Z,100321.30
2018-11-28T00:40:14.864Z,100316.37
2018-11-28T00:42:43.474Z,100318.26
2018-11-28T00:45:13.955Z,100316.60
2018-11-28T00:47:42.538Z,100326.56
2018-11-28T00:50:12.999Z,100321.30
2018-11-28T00:52:41.618Z,100318.00
2018-11-28T00:55:13.516Z,100311.40
2018-11-28T00:57:42.159Z,100310.78
2018-11-28T01:00:17.063Z,100312.72
2018-11-28T01:02:45.639Z,100316.13
2018-11-28T01:05:14.918Z,100316.53
2018-11-28T01:07:44.160Z,100300.32
2018-11-28T01:10:14.629Z,100302.55
2018-11-28T01:12:43.167Z,100297.66
2018-11-28T01:15:12.868Z,100301.11
2018-11-28T01:17:41.445Z,100301.62
2018-11-28T01:20:11.527Z,100295.19
2018-11-28T01:22:40.089Z,100295.21
2018-11-28T01:25:10.654Z,100303.83
2018-11-28T01:27:39.174Z,100293.89
2018-11-28T01:30:11.711Z,100290.92
2018-11-28T01:32:40.281Z,100290.59
2018-11-28T01:35:13.885Z,100302.58
2018-11-28T01:37:42.654Z,100300.83
2018-11-28T01:40:13.284Z,100294.02
2018-11-28T01:42:41.807Z,100294.62
2018-11-28T01:45:12.814Z,100285.48
2018-11-28T01:47:41.505Z,100290.73
2018-11-28T01:50:12.145Z,100299.91
2018-11-28T01:52:40.687Z,100298.67
2018-11-28T01:55:10.313Z,100303.09
2018-11-28T01:57:38.948Z,100304.94
2018-11-28T02:00:16.033Z,100300.21
2018-11-28T02:02:44.595Z,100296.71
2018-11-28T02:05:13.234Z,100304.84
2018-11-28T02:07:41.779Z,100302.88
2018-11-28T02:10:11.722Z,100309.35
2018-11-28T02:12:40.478Z,100313.24
2018-11-28T02:15:10.665Z,100311.95
2018-11-28T02:17:39.195Z,100304.34
2018-11-28T02:20:09.879Z,100312.05
2018-11-28T02:22:38.573Z,100296.95
2018-11-28T02:25:08.250Z,100294.81
2018-11-28T02:27:36.780Z,100301.67
2018-11-28T02:30:07.479Z,100302.36
2018-11-28T02:32:36.038Z,100304.41
2018-11-28T02:35:05.335Z,100298.93
2018-11-28T02:37:33.895Z,100293.19
2018-11-28T02:40:02.477Z,100289.23
2018-11-28T02:42:30.954Z,100284.00
2018-11-28T02:44:59.499Z,100287.48
2018-11-28T02:47:27.987Z,100292.28
2018-11-28T02:49:56.507Z,100289.30
2018-11-28T02:52:25.035Z,100275.38
2018-11-28T02:54:53.577Z,100300.27
2018-11-28T02:57:22.147Z,100273.06
2018-11-28T02:59:50.667Z,100271.09
2018-11-28T03:02:19.165Z,100280.94
2018-11-28T03:04:47.673Z,100264.55
2018-11-28T03:07:16.212Z,100263.25
2018-11-28T03:09:44.756Z,100273.05
2018-11-28T03:12:13.294Z,100257.96
2018-11-28T03:14:41.864Z,100263.20
2018-11-28T03:17:14.494Z,100276.88
2018-11-28T03:19:43.082Z,100260.20
2018-11-28T03:22:11.613Z,100268.33
2018-11-28T03:24:40.159Z,100266.97
2018-11-28T03:27:08.759Z,100273.91
2018-11-28T03:29:37.296Z,100279.55
2018-11-28T03:32:05.904Z,100270.97
2018-11-28T03:34:34.537Z,100267.54
2018-11-28T03:37:03.111Z,100274.48
2018-11-28T03:39:31.687Z,100265.38
2018-11-28T03:42:00.247Z,100259.58
2018-11-28T03:44:28.873Z,100264.42
2018-11-28T03:46:57.456Z,100265.72
2018-11-28T03:49:26.037Z,100272.16
2018-11-28T03:51:54.579Z,100257.52
2018-11-28T03:54:23.134Z,100267.87
2018-11-28T03:56:51.739Z,100252.33
2018-11-28T03:59:20.310Z,100254.28
2018-11-28T04:01:48.936Z,100264.16
2018-11-28T04:04:17.478Z,100244.64
2018-11-28T04:06:46.064Z,100251.69
2018-11-28T04:09:14.699Z,100259.53
2018-11-28T04:11:43.293Z,100257.80
2018-11-28T04:14:11.891Z,100262.12
2018-11-28T04:16:40.507Z,100260.44
2018-11-28T04:19:09.132Z,100251.42
2018-11-28T04:21:37.698Z,100261.06
2018-11-28T04:24:06.266Z,100259.21
2018-11-28T04:26:34.879Z,100271.93
2018-11-28T04:29:03.428Z,100268.90
2018-11-28T04:31:32.060Z,100274.14
2018-11-28T04:34:00.593Z,100269.79
2018-11-28T04:36:29.178Z,100270.25
2018-11-28T04:38:57.740Z,100262.47
2018-11-28T04:41:26.374Z,100269.79
2018-11-28T04:43:54.915Z,100267.77
2018-11-28T04:46:23.500Z,100274.98
2018-11-28T04:48:52.079Z,100274.36
2018-11-28T04:51:20.722Z,100262.23
2018-11-28T04:53:49.322Z,100276.41
2018-11-28T04:56:17.936Z,100260.61
2018-11-28T04:58:46.470Z,100264.15
2018-11-28T05:01:15.075Z,100251.63
2018-11-28T05:03:43.641Z,100250.79
2018-11-28T05:06:13.449Z,100242.60
2018-11-28T05:08:41.991Z,100254.42
2018-11-28T05:11:10.586Z,100255.39
2018-11-28T05:13:39.205Z,100254.03
2018-11-28T05:16:07.794Z,100256.23
2018-11-28T05:18:37.408Z,100260.52
2018-11-28T05:21:06.339Z,100253.69
2018-11-28T05:23:35.977Z,100258.98
2018-11-28T05:26:04.685Z,100246.75
2018-11-28T05:28:33.282Z,100254.65
2018-11-28T05:31:01.963Z,100254.09
2018-11-28T05:33:30.589Z,100254.55
2018-11-28T05:35:59.201Z,100260.13
2018-11-28T05:38:27.823Z,100239.52
2018-11-28T05:40:56.472Z,100246.06
2018-11-28T05:43:25.073Z,100238.13
2018-11-28T05:45:53.666Z,100264.42
2018-11-28T05:48:22.247Z,100243.86
2018-11-28T05:50:50.970Z,100248.45
2018-11-28T05:53:19.632Z,100250.26
2018-11-28T05:55:48.224Z,100247.55
2018-11-28T05:58:16.803Z,100243.61
2018-11-28T06:00:45.480Z,100251.55
2018-11-28T06:03:14.218Z,100248.00
2018-11-28T06:05:43.332Z,100246.37
2018-11-28T06:08:11.901Z,100262.77
2018-11-28T06:10:40.534Z,100246.45
2018-11-28T06:13:09.175Z,100248.91
2018-11-28T06:15:37.757Z,100234.23
2018-11-28T06:18:07.604Z,100223.91
2018-11-28T06:20:36.216Z,100232.64
2018-11-28T06:23:04.863Z,100245.11
2018-11-28T06:25:33.502Z,100234.78
2018-11-28T06:28:02.121Z,100247.66
2018-11-28T06:30:30.729Z,100242.56
2018-11-28T06:32:59.790Z,100234.39
2018-11-28T06:35:28.387Z,100237.44
2018-11-28T06:37:56.968Z,100241.82
2018-11-28T06:40:25.527Z,100240.56
2018-11-28T06:42:54.047Z,100244.91
2018-11-28T06:45:23.445Z,100241.48
2018-11-28T06:47:51.993Z,100244.02
2018-11-28T06:50:20.731Z,100244.52
2018-11-28T06:52:50.511Z,100263.64
2018-11-28T06:55:23.997Z,100264.94
2018-11-28T06:57:52.604Z,100264.08
2018-11-28T07:00:24.426Z,100266.23
2018-11-28T07:02:54.226Z,100268.08
2018-11-28T07:05:25.017Z,100269.28
2018-11-28T07:07:57.311Z,100274.06
2018-11-28T07:10:26.632Z,100279.56
2018-11-28T07:12:55.275Z,100280.20
2018-11-28T07:15:26.181Z,100280.61
2018-11-28T07:17:54.765Z,100286.75
2018-11-28T07:20:23.383Z,100290.24
2018-11-28T07:22:51.957Z,100299.08
2018-11-28T07:25:20.581Z,100304.78
2018-11-28T07:27:49.626Z,100308.17
2018-11-28T07:30:22.208Z,100302.18
2018-11-28T07:32:52.269Z,100300.94
2018-11-28T07:35:20.902Z,100320.00
2018-11-28T07:37:52.088Z,100309.62
2018-11-28T07:40:28.692Z,100311.06
2018-11-28T07:43:12.128Z,100337.38
2018-11-28T07:45:46.836Z,100305.53
2018-11-28T07:48:17.284Z,100307.63
2018-11-28T07:50:45.959Z,100318.00
2018-11-28T07:53:16.733Z,100302.48
2018-11-28T07:55:45.330Z,100314.20
2018-11-28T07:58:13.866Z,100323.90
2018-11-28T08:00:56.273Z,100321.84
2018-11-28T08:03:24.810Z,100315.50
2018-11-28T08:05:53.329Z,100294.35
2018-11-28T08:08:28.073Z,100296.55
2018-11-28T08:13:49.845Z,100315.23
2018-11-28T08:16:18.506Z,100323.62
2018-11-28T08:18:47.150Z,100319.45
2018-11-28T08:21:15.774Z,100304.75
2018-11-28T08:23:44.428Z,100306.58
2018-11-28T08:26:13.038Z,100324.02
2018-11-28T08:28:41.923Z,100312.81
2018-11-28T08:31:10.489Z,100303.84
2018-11-28T08:33:39.173Z,100318.31
2018-11-28T08:36:07.802Z,100300.64
2018-11-28T08:38:36.454Z,100306.44
2018-11-28T08:41:05.105Z,100305.26
2018-11-28T08:43:41.560Z,100303.59
2018-11-28T08:46:23.432Z,100294.71
2018-11-28T08:48:53.850Z,100298.25
2018-11-28T08:51:22.972Z,100296.16
2018-11-28T08:53:52.657Z,100295.78
2018-11-28T08:56:21.551Z,100305.55
2018-11-28T08:58:51.113Z,100307.81
2018-11-28T09:01:23.196Z,100305.83
2018-11-28T09:03:53.200Z,100327.17
2018-11-28T09:06:25.610Z,100315.65
2018-11-28T09:08:54.615Z,100191.45
2018-11-28T09:11:23.427Z,100314.41
2018-11-28T09:13:52.580Z,100306.05
2018-11-28T09:16:24.180Z,100306.47
2018-11-28T09:18:54.797Z,100309.01
2018-11-28T09:21:23.783Z,100305.55
2018-11-28T09:23:52.967Z,100333.58
2018-11-28T09:26:21.878Z,100320.45
2018-11-28T09:28:50.695Z,100294.87
2018-11-28T09:31:20.301Z,100297.13
2018-11-28T09:33:49.393Z,100305.31
2018-11-28T09:36:18.310Z,100313.09
2018-11-28T09:38:47.541Z,100329.98
2018-11-28T09:41:16.736Z,100301.82
2018-11-28T09:43:45.732Z,100306.52
2018-11-28T09:46:14.954Z,100310.48
2018-11-28T09:48:44.197Z,100314.33
2018-11-28T09:51:13.393Z,100300.59
2018-11-28T09:53:43.590Z,100315.90
2018-11-28T09:56:12.559Z,100325.77
2018-11-28T09:58:43.375Z,100299.39
2018-11-28T10:01:12.969Z,100306.41
2018-11-28T10:03:42.450Z,100312.57
2018-11-28T10:06:12.113Z,100306.44
2018-11-28T10:08:41.208Z,100309.83
2018-11-28T10:11:10.460Z,100327.23
2018-11-28T10:13:39.721Z,100309.83
2018-11-28T10:18:49.133Z,100307.70
2018-11-28T10:21:18.319Z,100294.72
2018-11-28T10:23:47.501Z,100307.84
2018-11-28T10:26:16.959Z,100278.97
2018-11-28T10:28:46.073Z,100291.16
2018-11-28T10:31:15.477Z,100285.54
2018-11-28T10:33:44.566Z,100283.80
2018-11-28T10:36:14.030Z,100277.82
2018-11-28T10:38:45.734Z,100284.71
2018-11-28T10:41:14.979Z,100297.29
2018-11-28T10:43:44.013Z,100261.39
2018-11-28T10:46:13.113Z,100265.03
2018-11-28T10:48:43.561Z,100276.04
2018-11-28T10:51:12.641Z,100269.55
2018-11-28T10:53:41.850Z,100261.08
2018-11-28T10:56:11.018Z,100255.53
2018-11-28T10:58:40.294Z,100263.80
2018-11-28T11:01:14.472Z,100269.95
2018-11-28T11:03:48.584Z,100254.52
2018-11-28T11:06:22.693Z,100263.27
2018-11-28T11:08:57.245Z,100267.27
2018-11-28T11:11:27.175Z,100262.50
2018-11-28T11:14:01.815Z,100271.11
2018-11-28T11:16:32.334Z,100244.19
2018-11-28T11:19:01.353Z,100250.36
2018-11-28T11:21:31.928Z,100247.28
2018-11-28T11:24:01.295Z,100242.92
2018-11-28T11:26:30.545Z,100254.27
2018-11-28T11:28:59.673Z,100243.84
2018-11-28T11:31:28.630Z,100241.27
2018-11-28T11:33:57.560Z,100259.12
2018-11-28T11:36:26.578Z,100243.06
2018-11-28T11:38:55.512Z,100259.95
2018-11-28T11:41:24.561Z,100240.47
2018-11-28T11:43:53.504Z,100238.33
2018-11-28T11:46:23.111Z,100238.41
2018-11-28T11:48:52.052Z,100241.44
2018-11-28T11:51:20.887Z,100234.13
2018-11-28T11:53:50.176Z,100205.42
2018-11-28T11:56:19.227Z,100216.33
2018-11-28T11:58:48.130Z,100225.50
2018-11-28T12:01:17.354Z,100222.02
2018-11-28T12:03:46.345Z,100223.75
2018-11-28T12:06:15.289Z,100224.17
2018-11-28T12:08:45.256Z,100218.10
2018-11-28T12:11:14.006Z,100208.48
2018-11-28T12:13:42.857Z,100216.80
2018-11-28T12:16:11.850Z,100216.84
2018-11-28T12:18:42.339Z,100202.53
2018-11-28T12:21:11.894Z,100189.03
2018-11-28T12:23:40.983Z,100198.17
2018-11-28T12:26:10.457Z,100217.81
2018-11-28T12:28:39.852Z,100204.73
2018-11-28T12:31:09.119Z,100189.48
2018-11-28T12:33:37.897Z,100196.89
2018-11-28T12:36:07.101Z,100208.66
2018-11-28T12:38:37.208Z,100216.08
2018-11-28T12:41:06.835Z,100196.03
2018-11-28T12:43:35.727Z,100200.37
2018-11-28T12:46:04.440Z,100192.95
2018-11-28T12:48:33.295Z,100202.96
2018-11-28T12:51:02.175Z,100175.06
2018-11-28T12:53:31.178Z,100193.34
2018-11-28T12:56:01.415Z,100191.19
2018-11-28T12:58:30.393Z,100185.52
2018-11-28T13:01:00.087Z,100181.66
2018-11-28T13:03:37.433Z,100184.30
2018-11-28T13:06:07.332Z,100198.19
2018-11-28T13:08:45.553Z,100191.27
2018-11-28T13:11:14.671Z,100207.83
2018-11-28T13:13:44.132Z,100168.66
2018-11-28T13:16:13.269Z,100197.81
2018-11-28T13:18:42.957Z,100186.48
2018-11-28T13:21:34.505Z,100188.25
2018-11-28T13:24:26.524Z,100175.59
2018-11-28T13:27:18.212Z,100168.20
2018-11-28T13:29:47.054Z,100179.48
2018-11-28T13:32:19.535Z,100155.55
2018-11-28T13:34:48.904Z,100163.81
2018-11-28T13:37:22.322Z,100167.74
2018-11-28T13:39:51.365Z,100164.68
2018-11-28T13:42:20.591Z,100161.63
2018-11-28T13:44:50.080Z,100144.64
2018-11-28T13:47:19.166Z,100139.84
2018-11-28T13:49:48.058Z,100136.78
2018-11-28T13:52:17.034Z,99565.23
2018-11-28T13:55:37.938Z,100144.62
2018-11-28T13:57:14.998Z,100128.11
2018-11-28T13:59:44.209Z,100131.16
2018-11-28T14:02:13.022Z,100127.64
2018-11-28T14:04:42.063Z,100114.58
2018-11-28T14:07:11.008Z,100112.84
2018-11-28T14:09:39.996Z,100135.87
2018-11-28T14:12:08.697Z,99910.48
2018-11-28T14:14:38.082Z,100116.69
2018-11-28T14:17:10.486Z,100136.71
2018-11-28T14:19:39.735Z,100114.91
2018-11-28T14:22:08.604Z,100110.14
2018-11-28T14:24:37.581Z,100117.56
2018-11-28T14:27:06.842Z,100118.43
2018-11-28T14:29:36.243Z,100098.81
2018-11-28T14:32:05.546Z,100117.52
2018-11-28T14:34:34.804Z,100102.73
2018-11-28T14:37:03.647Z,100117.06
2018-11-28T14:39:37.083Z,100120.53
2018-11-28T14:42:06.247Z,100105.73
2018-11-28T14:44:35.670Z,100143.13
2018-11-28T14:47:10.835Z,100117.03
2018-11-28T14:49:39.491Z,100131.41
2018-11-28T14:52:08.033Z,100109.66
2018-11-28T14:54:36.597Z,100127.48
2018-11-28T14:57:05.316Z,100109.17
2018-11-28T14:59:34.000Z,100105.69
2018-11-28T15:02:02.515Z,100107.02
2018-11-28T15:04:31.050Z,100113.11
2018-11-28T15:07:01.358Z,100112.17
2018-11-28T15:09:36.802Z,100122.63
2018-11-28T15:12:11.652Z,100126.09
2018-11-28T15:14:38.213Z,100132.17
2018-11-28T15:17:07.000Z,100123.91
2018-11-28T15:19:35.682Z,100117.80
2018-11-28T15:22:04.445Z,100104.33
2018-11-28T15:24:33.123Z,100103.00
2018-11-28T15:27:01.891Z,100102.55
2018-11-28T15:29:30.707Z,100107.77
2018-11-28T15:31:59.554Z,100103.84
2018-11-28T15:34:28.256Z,100112.09
2018-11-28T15:36:56.931Z,100114.27
2018-11-28T15:39:25.566Z,100111.24
2018-11-28T15:41:54.183Z,100116.44
2018-11-28T15:44:22.933Z,100096.89
2018-11-28T15:46:51.451Z,100111.27
2018-11-28T15:49:20.252Z,100099.07
2018-11-28T15:51:49.110Z,100125.95
2018-11-28T15:54:17.781Z,100101.67
2018-11-28T15:56:46.527Z,100097.28
2018-11-28T15:59:15.063Z,100099.02
2018-11-28T16:01:43.729Z,100107.25
2018-11-28T16:04:12.238Z,100095.95
2018-11-28T16:06:40.970Z,100091.59
2018-11-28T16:09:13.942Z,100099.45
2018-11-28T16:11:42.731Z,100117.58
2018-11-28T16:14:11.265Z,100110.54
2018-11-28T16:16:40.275Z,100123.40
2018-11-28T16:19:08.951Z,100116.34
2018-11-28T16:21:37.814Z,100112.28
2018-11-28T16:24:06.852Z,100114.69
2018-11-28T16:26:35.349Z,100115.95
2018-11-28T16:29:03.932Z,100114.99
2018-11-28T16:31:32.521Z,100113.56
2018-11-28T16:34:01.009Z,100120.41
2018-11-28T16:36:29.854Z,100105.56
2018-11-28T16:38:58.554Z,100133.70
2018-11-28T16:41:27.366Z,100102.88
2018-11-28T16:43:56.043Z,100131.41
2018-11-28T16:46:24.762Z,100109.30
2018-11-28T16:48:53.357Z,100121.87
2018-11-28T16:51:21.931Z,100106.61
2018-11-28T16:53:51.092Z,100125.70
2018-11-28T16:56:19.743Z,100128.28
2018-11-28T16:58:48.368Z,100128.34
2018-11-28T17:01:17.001Z,100106.16
2018-11-28T17:03:45.553Z,100128.25
2018-11-28T17:06:14.453Z,100131.23
2018-11-28T17:08:43.318Z,100139.93
2018-11-28T17:11:12.193Z,100148.63
2018-11-28T17:13:40.762Z,100129.49
2018-11-28T17:16:09.363Z,100133.80
2018-11-28T17:18:37.968Z,100146.91
2018-11-28T17:21:06.718Z,100154.69
2018-11-28T17:23:35.802Z,100148.12
2018-11-28T17:26:04.460Z,100185.36
2018-11-28T17:28:33.283Z,100142.18
2018-11-28T17:31:02.451Z,100162.08
2018-11-28T17:33:31.162Z,100172.80
2018-11-28T17:35:59.849Z,100145.16
2018-11-28T17:38:28.580Z,100160.68
2018-11-28T17:40:57.390Z,100153.41
2018-11-28T17:43:26.182Z,100132.06
2018-11-28T17:45:58.320Z,100141.55
2018-11-28T17:48:30.968Z,100151.48
2018-11-28T17:50:59.790Z,100161.57
2018-11-28T17:53:28.537Z,100151.61
2018-11-28T17:55:58.216Z,100182.83
2018-11-28T17:58:26.791Z,100157.67
2018-11-28T18:00:55.446Z,100151.61
2018-11-28T18:03:24.561Z,100135.52
2018-11-28T18:05:53.498Z,100127.30
2018-11-28T18:08:22.061Z,100126.32
2018-11-28T18:10:50.834Z,100116.80
2018-11-28T18:13:19.705Z,100111.25
2018-11-28T18:15:54.014Z,100115.06
2018-11-28T18:18:23.976Z,100106.34
2018-11-28T18:20:52.839Z,100128.00
2018-11-28T18:23:21.818Z,100126.70
2018-11-28T18:25:50.623Z,100131.08
2018-11-28T18:28:19.547Z,100114.58
2018-11-28T18:30:48.421Z,100139.33
2018-11-28T18:33:17.288Z,100133.39
2018-11-28T18:35:46.153Z,100147.58
2018-11-28T18:38:14.993Z,100117.75
2018-11-28T18:40:43.872Z,100116.89
2018-11-28T18:43:12.868Z,100102.61
2018-11-28T18:45:47.288Z,100104.36
2018-11-28T18:48:16.075Z,100116.98
2018-11-28T18:50:44.898Z,100108.29
2018-11-28T18:53:13.617Z,100102.17
2018-11-28T18:55:42.348Z,100103.92
2018-11-28T18:58:12.164Z,100075.83
2018-11-28T19:00:40.971Z,100109.72
2018-11-28T19:03:09.813Z,100105.81
2018-11-28T19:05:38.806Z,100124.97
2018-11-28T19:08:08.517Z,100110.66
2018-11-28T19:10:37.309Z,100105.45
2018-11-28T19:13:05.994Z,100127.19
2018-11-28T19:15:34.925Z,100134.08
2018-11-28T19:18:03.565Z,100114.12
2018-11-28T19:20:32.488Z,100110.27
2018-11-28T19:23:01.373Z,100116.78
2018-11-28T19:25:30.384Z,100117.64
2018-11-28T19:27:59.561Z,100123.28
2018-11-28T19:30:36.887Z,100123.75
2018-11-28T19:33:11.817Z,100099.74
2018-11-28T19:35:58.603Z,100100.19
2018-11-28T19:38:27.795Z,100101.10
2018-11-28T19:41:02.878Z,100103.32
2018-11-28T19:43:37.169Z,100090.75
2018-11-28T19:46:06.452Z,100108.97
2018-11-28T19:48:35.568Z,100070.31
2018-11-28T19:51:09.906Z,100075.63
2018-11-28T19:53:40.804Z,100074.34
2018-11-28T19:56:10.226Z,100079.19
2018-11-28T19:58:39.554Z,100064.83
2018-11-28T20:01:09.428Z,100097.80
2018-11-28T20:03:42.914Z,100065.70
2018-11-28T20:06:12.594Z,100059.14
2018-11-28T20:08:42.345Z,100073.96
2018-11-28T20:11:11.260Z,100093.91
2018-11-28T20:13:41.132Z,100079.53
2018-11-28T20:16:09.915Z,100094.87
2018-11-28T20:18:38.730Z,100089.11
2018-11-28T20:21:07.464Z,100078.28
2018-11-28T20:23:37.402Z,100090.55
2018-11-28T20:26:07.833Z,100087.13
2018-11-28T20:28:36.795Z,100087.20
2018-11-28T20:31:06.332Z,100076.42
2018-11-28T20:33:35.024Z,100082.53
2018-11-28T20:36:04.087Z,100046.77
2018-11-28T20:38:34.250Z,100092.02
2018-11-28T20:41:03.031Z,100066.90
2018-11-28T20:43:31.909Z,100061.27
2018-11-28T20:46:00.739Z,100053.48
2018-11-28T20:48:29.553Z,100070.87
2018-11-28T20:50:58.226Z,100060.02
2018-11-28T20:53:26.929Z,100043.90
2018-11-28T20:55:55.591Z,100047.36
2018-11-28T20:58:24.195Z,100044.81
2018-11-28T21:00:52.952Z,100052.20
2018-11-28T21:03:21.527Z,100052.23
2018-11-28T21:05:50.219Z,100072.25
2018-11-28T21:08:18.863Z,100046.59
2018-11-28T21:10:47.696Z,100078.75
2018-11-28T21:13:16.376Z,100090.97
2018-11-28T21:15:46.086Z,100079.67
2018-11-28T21:18:14.893Z,100058.00
2018-11-28T21:20:45.105Z,100064.97
2018-11-28T21:23:16.037Z,100072.80
2018-11-28T21:25:44.815Z,100072.38
2018-11-28T21:28:13.506Z,100075.01
2018-11-28T21:30:42.288Z,100055.09
2018-11-28T21:33:15.115Z,100053.73
2018-11-28T21:35:52.575Z,100057.72
2018-11-28T21:38:21.267Z,100045.98
2018-11-28T21:40:49.996Z,100061.63
2018-11-28T21:43:18.671Z,100057.73
2018-11-28T21:45:47.368Z,100052.56
2018-11-28T21:48:16.026Z,100051.67
2018-11-28T21:50:44.778Z,100037.83
2018-11-28T21:53:13.382Z,100047.81
2018-11-28T21:55:42.174Z,100077.30
2018-11-28T21:58:10.828Z,100038.72
2018-11-28T22:00:39.445Z,100024.38
2018-11-28T22:03:08.228Z,100033.55
2018-11-28T22:05:36.808Z,100035.30
2018-11-28T22:08:05.559Z,100065.69
2018-11-28T22:10:34.242Z,100047.89
2018-11-28T22:13:02.957Z,100045.73
2018-11-28T22:15:31.633Z,100055.72
2018-11-28T22:18:00.246Z,100050.94
2018-11-28T22:20:28.924Z,100043.59
2018-11-28T22:22:57.597Z,100079.59
2018-11-28T22:25:27.200Z,100073.58
2018-11-28T22:27:56.037Z,100090.98
2018-11-28T22:30:28.786Z,100072.67
2018-11-28T22:32:57.899Z,100066.59
2018-11-28T22:35:26.516Z,100041.85
2018-11-28T22:37:55.185Z,100040.58
2018-11-28T22:40:25.979Z,100036.64
2018-11-28T22:42:54.581Z,100046.23
2018-11-28T22:45:24.444Z,100043.67
2018-11-28T22:47:53.132Z,100039.33
2018-11-28T22:50:21.763Z,100027.13
2018-11-28T22:52:50.468Z,100067.13
2018-11-28T22:55:19.057Z,100037.14
2018-11-28T22:57:47.738Z,99829.25
2018-11-28T23:00:30.998Z,100031.92
2018-11-28T23:03:01.044Z,100040.66
2018-11-28T23:05:40.717Z,100027.20
2018-11-28T23:08:11.597Z,100030.70
2018-11-28T23:10:40.345Z,100036.31
2018-11-28T23:13:11.745Z,100023.35
2018-11-28T23:15:40.316Z,100028.49
2018-11-28T23:18:10.058Z,100024.59
2018-11-28T23:20:38.697Z,100020.67
2018-11-28T23:23:08.374Z,100008.13
2018-11-28T23:25:37.565Z,100050.73
2018-11-28T23:28:06.683Z,100072.49
2018-11-28T23:30:35.335Z,100035.12
2018-11-28T23:33:04.481Z,100024.25
2018-11-28T23:35:33.190Z,100037.63
2018-11-28T23:38:01.824Z,99994.22
2018-11-28T23:40:30.479Z,99991.64
2018-11-28T23:42:59.134Z,99996.86
2018-11-28T23:45:27.861Z,99983.38
2018-11-28T23:47:56.537Z,99986.01
2018-11-28T23:50:26.026Z,100004.26
2018-11-28T23:52:55.715Z,99990.34
2018-11-28T23:55:26.249Z,100004.71
2018-11-28T23:57:55.078Z,100005.58
